sensor_id;sensor_type;location;lat;lon;timestamp;temperature;humidity
827;DHT22;395;48.132;11.608;2023-03-01T00:01:25;4.30;1.00
827;DHT22;395;48.132;11.608;2023-03-01T00:03:52;4.30;1.00
827;DHT22;395;48.132;11.608;2023-03-01T00:06:19;4.30;1.00
827;DHT22;395;48.132;11.608;2023-03-01T00:08:45;4.30;1.00
827;DHT22;395;48.132;11.608;2023-03-01T00:11:19;4.30;1.00
827;DHT22;395;48.132;11.608;2023-03-01T00:13:48;4.30;1.00
827;DHT22;395;48.132;11.608;2023-03-01T00:16:20;4.30;1.00
827;DHT22;395;48.132;11.608;2023-03-01T00:18:46;4.30;1.00
827;DHT22;395;48.132;11.608;2023-03-01T00:21:12;4.30;1.00
827;DHT22;395;48.132;11.608;2023-03-01T00:23:38;4.30;1.00
827;DHT22;395;48.132;11.608;2023-03-01T00:26:09;4.30;1.00
827;DHT22;395;48.132;11.608;2023-03-01T00:28:35;4.30;1.00
827;DHT22;395;48.132;11.608;2023-03-01T00:31:06;4.30;1.00
827;DHT22;395;48.132;11.608;2023-03-01T00:33:32;4.30;1.00
827;DHT22;395;48.132;11.608;2023-03-01T00:35:59;4.30;1.00
827;DHT22;395;48.132;11.608;2023-03-01T00:38:25;4.30;1.00
827;DHT22;395;48.132;11.608;2023-03-01T00:40:51;4.40;1.00
827;DHT22;395;48.132;11.608;2023-03-01T00:43:16;4.30;1.00
827;DHT22;395;48.132;11.608;2023-03-01T00:45:42;4.20;1.00
827;DHT22;395;48.132;11.608;2023-03-01T00:48:08;4.30;1.00
827;DHT22;395;48.132;11.608;2023-03-01T00:50:33;4.30;1.00
827;DHT22;395;48.132;11.608;2023-03-01T00:52:59;4.30;1.00
827;DHT22;395;48.132;11.608;2023-03-01T00:55:25;4.30;1.00
827;DHT22;395;48.132;11.608;2023-03-01T00:57:51;4.30;1.00
827;DHT22;395;48.132;11.608;2023-03-01T01:00:18;4.10;1.00
827;DHT22;395;48.132;11.608;2023-03-01T01:02:44;4.20;1.00
827;DHT22;395;48.132;11.608;2023-03-01T01:05:09;4.20;1.00
827;DHT22;395;48.132;11.608;2023-03-01T01:07:35;4.20;1.00
827;DHT22;395;48.132;11.608;2023-03-01T01:10:01;4.20;1.00
827;DHT22;395;48.132;11.608;2023-03-01T01:12:26;4.20;1.00
827;DHT22;395;48.132;11.608;2023-03-01T01:14:52;4.20;1.00
827;DHT22;395;48.132;11.608;2023-03-01T01:17:18;4.20;1.00
827;DHT22;395;48.132;11.608;2023-03-01T01:19:43;4.10;1.00
827;DHT22;395;48.132;11.608;2023-03-01T01:22:09;4.10;1.00
827;DHT22;395;48.132;11.608;2023-03-01T01:24:35;4.20;1.00
827;DHT22;395;48.132;11.608;2023-03-01T01:27:00;4.20;1.00
827;DHT22;395;48.132;11.608;2023-03-01T01:29:26;4.20;1.00
827;DHT22;395;48.132;11.608;2023-03-01T01:31:51;4.20;1.00
827;DHT22;395;48.132;11.608;2023-03-01T01:34:19;4.20;1.00
827;DHT22;395;48.132;11.608;2023-03-01T01:36:52;4.20;1.00
827;DHT22;395;48.132;11.608;2023-03-01T01:39:22;4.20;1.00
827;DHT22;395;48.132;11.608;2023-03-01T01:41:47;4.20;1.00
827;DHT22;395;48.132;11.608;2023-03-01T01:49:35;4.20;1.00
827;DHT22;395;48.132;11.608;2023-03-01T01:54:47;4.20;1.00
827;DHT22;395;48.132;11.608;2023-03-01T01:57:18;4.20;1.00
827;DHT22;395;48.132;11.608;2023-03-01T01:59:49;4.20;1.00
827;DHT22;395;48.132;11.608;2023-03-01T02:02:15;4.20;1.00
827;DHT22;395;48.132;11.608;2023-03-01T02:04:42;4.20;1.00
827;DHT22;395;48.132;11.608;2023-03-01T02:07:18;4.20;1.00
827;DHT22;395;48.132;11.608;2023-03-01T02:09:47;4.20;1.00
827;DHT22;395;48.132;11.608;2023-03-01T02:12:16;4.20;1.00
827;DHT22;395;48.132;11.608;2023-03-01T02:14:43;4.20;1.00
827;DHT22;395;48.132;11.608;2023-03-01T02:17:10;4.20;1.00
827;DHT22;395;48.132;11.608;2023-03-01T02:19:49;4.20;1.00
827;DHT22;395;48.132;11.608;2023-03-01T02:22:33;4.20;1.00
827;DHT22;395;48.132;11.608;2023-03-01T02:25:28;4.20;1.00
827;DHT22;395;48.132;11.608;2023-03-01T02:30:39;4.10;1.00
827;DHT22;395;48.132;11.608;2023-03-01T02:33:26;4.10;1.00
827;DHT22;395;48.132;11.608;2023-03-01T02:35:54;4.10;1.00
827;DHT22;395;48.132;11.608;2023-03-01T02:38:21;4.10;1.00
827;DHT22;395;48.132;11.608;2023-03-01T02:40:50;4.10;1.00
827;DHT22;395;48.132;11.608;2023-03-01T02:43:17;4.10;1.00
827;DHT22;395;48.132;11.608;2023-03-01T02:45:51;4.10;1.00
827;DHT22;395;48.132;11.608;2023-03-01T02:48:19;4.00;1.00
827;DHT22;395;48.132;11.608;2023-03-01T02:53:39;4.00;1.00
827;DHT22;395;48.132;11.608;2023-03-01T02:56:08;4.00;1.00
827;DHT22;395;48.132;11.608;2023-03-01T02:58:39;4.10;1.00
827;DHT22;395;48.132;11.608;2023-03-01T03:01:11;4.10;1.00
827;DHT22;395;48.132;11.608;2023-03-01T03:03:38;4.10;1.00
827;DHT22;395;48.132;11.608;2023-03-01T03:06:04;4.20;1.00
827;DHT22;395;48.132;11.608;2023-03-01T03:08:30;4.10;1.00
827;DHT22;395;48.132;11.608;2023-03-01T03:10:55;4.10;1.00
827;DHT22;395;48.132;11.608;2023-03-01T03:13:21;4.10;1.00
827;DHT22;395;48.132;11.608;2023-03-01T03:15:47;4.10;1.00
827;DHT22;395;48.132;11.608;2023-03-01T03:18:15;4.10;1.00
827;DHT22;395;48.132;11.608;2023-03-01T03:20:42;4.00;1.00
827;DHT22;395;48.132;11.608;2023-03-01T03:23:08;4.20;1.00
827;DHT22;395;48.132;11.608;2023-03-01T03:25:34;4.00;1.00
827;DHT22;395;48.132;11.608;2023-03-01T03:28:03;4.00;1.00
827;DHT22;395;48.132;11.608;2023-03-01T03:30:36;4.00;1.00
827;DHT22;395;48.132;11.608;2023-03-01T03:33:02;4.00;1.00
827;DHT22;395;48.132;11.608;2023-03-01T03:35:40;4.00;1.00
827;DHT22;395;48.132;11.608;2023-03-01T03:38:09;4.00;1.00
827;DHT22;395;48.132;11.608;2023-03-01T03:40:45;4.00;1.00
827;DHT22;395;48.132;11.608;2023-03-01T03:43:14;4.00;1.00
827;DHT22;395;48.132;11.608;2023-03-01T03:45:40;4.10;1.00
827;DHT22;395;48.132;11.608;2023-03-01T03:48:09;4.00;1.00
827;DHT22;395;48.132;11.608;2023-03-01T03:50:36;4.00;1.00
827;DHT22;395;48.132;11.608;2023-03-01T03:53:05;4.00;1.00
827;DHT22;395;48.132;11.608;2023-03-01T03:55:31;4.00;1.00
827;DHT22;395;48.132;11.608;2023-03-01T03:58:02;3.90;1.00
827;DHT22;395;48.132;11.608;2023-03-01T04:00:43;3.90;1.00
827;DHT22;395;48.132;11.608;2023-03-01T04:03:10;3.90;1.00
827;DHT22;395;48.132;11.608;2023-03-01T04:05:37;3.90;1.00
827;DHT22;395;48.132;11.608;2023-03-01T04:08:03;3.90;1.00
827;DHT22;395;48.132;11.608;2023-03-01T04:10:37;3.90;1.00
827;DHT22;395;48.132;11.608;2023-03-01T04:13:04;3.80;1.00
827;DHT22;395;48.132;11.608;2023-03-01T04:15:31;3.80;1.00
827;DHT22;395;48.132;11.608;2023-03-01T04:17:58;3.80;1.00
827;DHT22;395;48.132;11.608;2023-03-01T04:20:26;3.80;1.00
827;DHT22;395;48.132;11.608;2023-03-01T04:23:01;3.80;1.00
827;DHT22;395;48.132;11.608;2023-03-01T04:25:50;3.80;1.00
827;DHT22;395;48.132;11.608;2023-03-01T04:28:24;3.80;1.00
827;DHT22;395;48.132;11.608;2023-03-01T04:30:51;3.80;1.00
827;DHT22;395;48.132;11.608;2023-03-01T04:33:17;3.80;1.00
827;DHT22;395;48.132;11.608;2023-03-01T04:35:43;3.80;1.00
827;DHT22;395;48.132;11.608;2023-03-01T04:38:09;3.90;1.00
827;DHT22;395;48.132;11.608;2023-03-01T04:40:35;3.70;1.00
827;DHT22;395;48.132;11.608;2023-03-01T04:43:02;3.70;1.00
827;DHT22;395;48.132;11.608;2023-03-01T04:45:27;3.70;1.00
827;DHT22;395;48.132;11.608;2023-03-01T04:47:53;3.70;1.00
827;DHT22;395;48.132;11.608;2023-03-01T04:50:20;3.70;1.00
827;DHT22;395;48.132;11.608;2023-03-01T04:52:47;3.70;1.00
827;DHT22;395;48.132;11.608;2023-03-01T04:55:13;3.70;1.00
827;DHT22;395;48.132;11.608;2023-03-01T04:57:39;3.70;1.00
827;DHT22;395;48.132;11.608;2023-03-01T05:00:08;3.80;1.00
827;DHT22;395;48.132;11.608;2023-03-01T05:02:57;3.70;1.00
827;DHT22;395;48.132;11.608;2023-03-01T05:05:27;3.70;1.00
827;DHT22;395;48.132;11.608;2023-03-01T05:08:00;3.60;1.00
827;DHT22;395;48.132;11.608;2023-03-01T05:10:28;3.60;1.00
827;DHT22;395;48.132;11.608;2023-03-01T05:12:59;3.60;1.00
827;DHT22;395;48.132;11.608;2023-03-01T05:15:26;3.60;1.00
827;DHT22;395;48.132;11.608;2023-03-01T05:17:53;3.60;1.00
827;DHT22;395;48.132;11.608;2023-03-01T05:20:20;3.70;1.00
827;DHT22;395;48.132;11.608;2023-03-01T05:22:49;3.70;1.00
827;DHT22;395;48.132;11.608;2023-03-01T05:25:14;3.60;1.00
827;DHT22;395;48.132;11.608;2023-03-01T05:27:40;3.60;1.00
827;DHT22;395;48.132;11.608;2023-03-01T05:30:06;3.60;1.00
827;DHT22;395;48.132;11.608;2023-03-01T05:32:46;3.60;1.00
827;DHT22;395;48.132;11.608;2023-03-01T05:35:14;3.60;1.00
827;DHT22;395;48.132;11.608;2023-03-01T05:37:45;3.50;1.00
827;DHT22;395;48.132;11.608;2023-03-01T05:40:17;3.50;1.00
827;DHT22;395;48.132;11.608;2023-03-01T05:42:44;3.50;1.00
827;DHT22;395;48.132;11.608;2023-03-01T05:45:11;3.50;1.00
827;DHT22;395;48.132;11.608;2023-03-01T05:47:41;3.60;1.00
827;DHT22;395;48.132;11.608;2023-03-01T05:50:21;3.60;1.00
827;DHT22;395;48.132;11.608;2023-03-01T05:52:52;3.60;1.00
827;DHT22;395;48.132;11.608;2023-03-01T05:55:21;3.50;1.00
827;DHT22;395;48.132;11.608;2023-03-01T05:57:47;3.50;1.00
827;DHT22;395;48.132;11.608;2023-03-01T06:00:14;3.50;1.00
827;DHT22;395;48.132;11.608;2023-03-01T06:02:40;3.50;1.00
827;DHT22;395;48.132;11.608;2023-03-01T06:05:08;3.50;1.00
827;DHT22;395;48.132;11.608;2023-03-01T06:07:34;3.50;1.00
827;DHT22;395;48.132;11.608;2023-03-01T06:10:01;3.50;1.00
827;DHT22;395;48.132;11.608;2023-03-01T06:12:30;3.40;1.00
827;DHT22;395;48.132;11.608;2023-03-01T06:14:56;3.50;1.00
827;DHT22;395;48.132;11.608;2023-03-01T06:17:21;3.50;1.00
827;DHT22;395;48.132;11.608;2023-03-01T06:19:47;3.40;1.00
827;DHT22;395;48.132;11.608;2023-03-01T06:22:13;3.50;1.00
827;DHT22;395;48.132;11.608;2023-03-01T06:24:38;3.50;1.00
827;DHT22;395;48.132;11.608;2023-03-01T06:27:04;3.50;1.00
827;DHT22;395;48.132;11.608;2023-03-01T06:29:30;3.50;1.00
827;DHT22;395;48.132;11.608;2023-03-01T06:31:56;3.40;1.00
827;DHT22;395;48.132;11.608;2023-03-01T06:34:21;3.40;1.00
827;DHT22;395;48.132;11.608;2023-03-01T06:36:47;3.40;1.00
827;DHT22;395;48.132;11.608;2023-03-01T06:39:13;3.50;1.00
827;DHT22;395;48.132;11.608;2023-03-01T06:41:38;3.50;1.00
827;DHT22;395;48.132;11.608;2023-03-01T06:44:04;3.40;1.00
827;DHT22;395;48.132;11.608;2023-03-01T06:46:30;3.50;1.00
827;DHT22;395;48.132;11.608;2023-03-01T06:48:56;3.50;1.00
827;DHT22;395;48.132;11.608;2023-03-01T06:51:21;3.50;1.00
827;DHT22;395;48.132;11.608;2023-03-01T06:53:47;3.50;1.00
827;DHT22;395;48.132;11.608;2023-03-01T06:56:13;3.50;1.00
827;DHT22;395;48.132;11.608;2023-03-01T06:58:38;3.50;1.00
827;DHT22;395;48.132;11.608;2023-03-01T07:01:08;3.50;1.00
827;DHT22;395;48.132;11.608;2023-03-01T07:03:34;3.50;1.00
827;DHT22;395;48.132;11.608;2023-03-01T07:05:59;3.50;1.00
827;DHT22;395;48.132;11.608;2023-03-01T07:08:26;3.50;1.00
827;DHT22;395;48.132;11.608;2023-03-01T07:10:56;3.50;1.00
827;DHT22;395;48.132;11.608;2023-03-01T07:13:22;3.50;1.00
827;DHT22;395;48.132;11.608;2023-03-01T07:15:48;3.50;1.00
827;DHT22;395;48.132;11.608;2023-03-01T07:18:14;3.60;1.00
827;DHT22;395;48.132;11.608;2023-03-01T07:20:39;3.60;1.00
827;DHT22;395;48.132;11.608;2023-03-01T07:23:05;3.50;1.00
827;DHT22;395;48.132;11.608;2023-03-01T07:25:31;3.60;1.00
827;DHT22;395;48.132;11.608;2023-03-01T07:27:57;3.60;1.00
827;DHT22;395;48.132;11.608;2023-03-01T07:30:23;3.60;1.00
827;DHT22;395;48.132;11.608;2023-03-01T07:32:51;3.70;1.00
827;DHT22;395;48.132;11.608;2023-03-01T07:35:17;3.70;1.00
827;DHT22;395;48.132;11.608;2023-03-01T07:37:43;3.70;1.00
827;DHT22;395;48.132;11.608;2023-03-01T07:40:10;3.70;1.00
827;DHT22;395;48.132;11.608;2023-03-01T07:42:36;3.70;1.00
827;DHT22;395;48.132;11.608;2023-03-01T07:45:03;3.70;1.00
827;DHT22;395;48.132;11.608;2023-03-01T07:47:28;3.70;1.00
827;DHT22;395;48.132;11.608;2023-03-01T07:49:54;3.60;1.00
827;DHT22;395;48.132;11.608;2023-03-01T07:52:20;3.60;1.00
827;DHT22;395;48.132;11.608;2023-03-01T07:54:45;3.70;1.00
827;DHT22;395;48.132;11.608;2023-03-01T07:57:11;3.70;1.00
827;DHT22;395;48.132;11.608;2023-03-01T07:59:36;3.70;1.00
827;DHT22;395;48.132;11.608;2023-03-01T08:02:02;3.70;1.00
827;DHT22;395;48.132;11.608;2023-03-01T08:04:28;3.70;1.00
827;DHT22;395;48.132;11.608;2023-03-01T08:06:56;3.80;1.00
827;DHT22;395;48.132;11.608;2023-03-01T08:09:22;3.80;1.00
827;DHT22;395;48.132;11.608;2023-03-01T08:11:48;3.80;1.00
827;DHT22;395;48.132;11.608;2023-03-01T08:14:13;3.90;1.00
827;DHT22;395;48.132;11.608;2023-03-01T08:16:39;3.90;1.00
827;DHT22;395;48.132;11.608;2023-03-01T08:19:13;4.00;1.00
827;DHT22;395;48.132;11.608;2023-03-01T08:21:39;4.00;1.00
827;DHT22;395;48.132;11.608;2023-03-01T08:24:06;4.00;1.00
827;DHT22;395;48.132;11.608;2023-03-01T08:26:32;4.00;1.00
827;DHT22;395;48.132;11.608;2023-03-01T08:28:59;4.10;1.00
827;DHT22;395;48.132;11.608;2023-03-01T08:31:28;4.10;1.00
827;DHT22;395;48.132;11.608;2023-03-01T08:33:57;4.10;1.00
827;DHT22;395;48.132;11.608;2023-03-01T08:36:28;4.10;1.00
827;DHT22;395;48.132;11.608;2023-03-01T08:38:54;4.20;1.00
827;DHT22;395;48.132;11.608;2023-03-01T08:41:20;4.20;1.00
827;DHT22;395;48.132;11.608;2023-03-01T08:43:46;4.10;1.00
827;DHT22;395;48.132;11.608;2023-03-01T08:46:12;4.10;1.00
827;DHT22;395;48.132;11.608;2023-03-01T08:48:39;4.20;1.00
827;DHT22;395;48.132;11.608;2023-03-01T08:51:13;4.20;1.00
827;DHT22;395;48.132;11.608;2023-03-01T08:53:39;4.20;1.00
827;DHT22;395;48.132;11.608;2023-03-01T08:56:05;4.30;1.00
827;DHT22;395;48.132;11.608;2023-03-01T08:58:31;4.30;1.00
827;DHT22;395;48.132;11.608;2023-03-01T09:00:57;4.30;1.00
827;DHT22;395;48.132;11.608;2023-03-01T09:03:23;4.30;1.00
827;DHT22;395;48.132;11.608;2023-03-01T09:05:50;4.40;1.00
827;DHT22;395;48.132;11.608;2023-03-01T09:08:19;4.30;1.00
827;DHT22;395;48.132;11.608;2023-03-01T09:10:45;4.40;1.00
827;DHT22;395;48.132;11.608;2023-03-01T09:13:11;4.40;1.00
827;DHT22;395;48.132;11.608;2023-03-01T09:15:37;4.40;1.00
827;DHT22;395;48.132;11.608;2023-03-01T09:18:03;4.50;1.00
827;DHT22;395;48.132;11.608;2023-03-01T09:20:30;4.50;1.00
827;DHT22;395;48.132;11.608;2023-03-01T09:22:56;4.50;1.00
827;DHT22;395;48.132;11.608;2023-03-01T09:25:22;4.50;1.00
827;DHT22;395;48.132;11.608;2023-03-01T09:27:54;4.60;1.00
827;DHT22;395;48.132;11.608;2023-03-01T09:30:20;4.50;1.00
827;DHT22;395;48.132;11.608;2023-03-01T09:32:46;4.50;1.00
827;DHT22;395;48.132;11.608;2023-03-01T09:35:12;4.50;1.00
827;DHT22;395;48.132;11.608;2023-03-01T09:37:39;4.50;1.00
827;DHT22;395;48.132;11.608;2023-03-01T09:40:19;4.50;1.00
827;DHT22;395;48.132;11.608;2023-03-01T09:42:51;4.60;1.00
827;DHT22;395;48.132;11.608;2023-03-01T09:45:35;4.60;1.00
827;DHT22;395;48.132;11.608;2023-03-01T09:48:02;4.60;1.00
827;DHT22;395;48.132;11.608;2023-03-01T09:50:38;4.60;1.00
827;DHT22;395;48.132;11.608;2023-03-01T09:53:15;4.70;1.00
827;DHT22;395;48.132;11.608;2023-03-01T09:55:49;4.70;1.00
827;DHT22;395;48.132;11.608;2023-03-01T09:58:34;4.80;1.00
827;DHT22;395;48.132;11.608;2023-03-01T10:01:31;4.80;1.00
827;DHT22;395;48.132;11.608;2023-03-01T10:06:32;4.70;1.00
827;DHT22;395;48.132;11.608;2023-03-01T10:09:10;4.70;1.00
827;DHT22;395;48.132;11.608;2023-03-01T10:11:43;4.70;1.00
827;DHT22;395;48.132;11.608;2023-03-01T10:16:57;4.80;1.00
827;DHT22;395;48.132;11.608;2023-03-01T10:19:33;4.80;1.00
827;DHT22;395;48.132;11.608;2023-03-01T10:24:39;4.80;1.00
827;DHT22;395;48.132;11.608;2023-03-01T10:27:23;4.80;1.00
827;DHT22;395;48.132;11.608;2023-03-01T10:32:42;4.90;1.00
827;DHT22;395;48.132;11.608;2023-03-01T10:35:26;4.70;1.00
827;DHT22;395;48.132;11.608;2023-03-01T10:38:05;4.70;1.00
827;DHT22;395;48.132;11.608;2023-03-01T10:40:33;4.60;1.00
827;DHT22;395;48.132;11.608;2023-03-01T10:43:05;4.80;1.00
827;DHT22;395;48.132;11.608;2023-03-01T10:45:39;4.90;1.00
827;DHT22;395;48.132;11.608;2023-03-01T10:48:12;5.00;1.00
827;DHT22;395;48.132;11.608;2023-03-01T10:50:40;5.00;1.00
827;DHT22;395;48.132;11.608;2023-03-01T10:53:34;5.00;1.00
827;DHT22;395;48.132;11.608;2023-03-01T10:58:34;5.00;1.00
827;DHT22;395;48.132;11.608;2023-03-01T11:06:37;5.10;1.00
827;DHT22;395;48.132;11.608;2023-03-01T11:11:41;5.00;1.00
827;DHT22;395;48.132;11.608;2023-03-01T11:14:19;5.00;1.00
827;DHT22;395;48.132;11.608;2023-03-01T11:16:48;5.00;1.00
827;DHT22;395;48.132;11.608;2023-03-01T11:19:21;5.10;1.00
827;DHT22;395;48.132;11.608;2023-03-01T11:22:19;5.00;1.00
827;DHT22;395;48.132;11.608;2023-03-01T11:24:53;5.00;1.00
827;DHT22;395;48.132;11.608;2023-03-01T11:27:25;5.10;1.00
827;DHT22;395;48.132;11.608;2023-03-01T11:30:16;5.10;1.00
827;DHT22;395;48.132;11.608;2023-03-01T11:32:50;5.20;1.00
827;DHT22;395;48.132;11.608;2023-03-01T11:35:26;5.20;1.00
827;DHT22;395;48.132;11.608;2023-03-01T11:45:33;5.20;1.00
827;DHT22;395;48.132;11.608;2023-03-01T11:48:28;5.20;1.00
827;DHT22;395;48.132;11.608;2023-03-01T11:50:58;5.30;1.00
827;DHT22;395;48.132;11.608;2023-03-01T11:56:21;5.10;1.00
827;DHT22;395;48.132;11.608;2023-03-01T12:10:25;5.30;1.00
827;DHT22;395;48.132;11.608;2023-03-01T12:18:41;5.40;1.00
827;DHT22;395;48.132;11.608;2023-03-01T12:27:24;5.20;1.00
827;DHT22;395;48.132;11.608;2023-03-01T12:35:20;5.40;1.00
827;DHT22;395;48.132;11.608;2023-03-01T12:43:08;5.30;1.00
827;DHT22;395;48.132;11.608;2023-03-01T12:51:17;5.50;1.00
827;DHT22;395;48.132;11.608;2023-03-01T12:53:48;5.40;1.00
827;DHT22;395;48.132;11.608;2023-03-01T12:56:20;5.50;1.00
827;DHT22;395;48.132;11.608;2023-03-01T13:01:40;5.70;1.00
827;DHT22;395;48.132;11.608;2023-03-01T13:04:32;5.70;1.00
827;DHT22;395;48.132;11.608;2023-03-01T13:07:41;5.60;1.00
827;DHT22;395;48.132;11.608;2023-03-01T13:10:48;5.60;1.00
827;DHT22;395;48.132;11.608;2023-03-01T13:13:26;5.70;1.00
827;DHT22;395;48.132;11.608;2023-03-01T13:15:52;5.80;1.00
827;DHT22;395;48.132;11.608;2023-03-01T13:20:48;5.90;1.00
827;DHT22;395;48.132;11.608;2023-03-01T13:31:00;5.90;1.00
827;DHT22;395;48.132;11.608;2023-03-01T13:35:52;6.00;1.00
827;DHT22;395;48.132;11.608;2023-03-01T13:38:47;6.10;1.00
827;DHT22;395;48.132;11.608;2023-03-01T13:47:02;6.20;1.00
827;DHT22;395;48.132;11.608;2023-03-01T13:49:57;6.20;1.00
827;DHT22;395;48.132;11.608;2023-03-01T13:52:55;6.30;1.00
827;DHT22;395;48.132;11.608;2023-03-01T13:55:25;6.30;1.00
827;DHT22;395;48.132;11.608;2023-03-01T13:57:57;6.40;1.00
827;DHT22;395;48.132;11.608;2023-03-01T14:00:38;6.30;1.00
827;DHT22;395;48.132;11.608;2023-03-01T14:03:23;6.40;1.00
827;DHT22;395;48.132;11.608;2023-03-01T14:06:14;6.50;1.00
827;DHT22;395;48.132;11.608;2023-03-01T14:08:44;6.60;1.00
827;DHT22;395;48.132;11.608;2023-03-01T14:14:32;6.60;1.00
827;DHT22;395;48.132;11.608;2023-03-01T14:20:24;6.90;1.00
827;DHT22;395;48.132;11.608;2023-03-01T14:22:51;6.90;1.00
827;DHT22;395;48.132;11.608;2023-03-01T14:27:55;7.00;1.00
827;DHT22;395;48.132;11.608;2023-03-01T14:30:25;7.00;1.00
827;DHT22;395;48.132;11.608;2023-03-01T14:32:57;7.10;1.00
827;DHT22;395;48.132;11.608;2023-03-01T14:35:34;7.00;1.00
827;DHT22;395;48.132;11.608;2023-03-01T14:38:02;6.90;1.00
827;DHT22;395;48.132;11.608;2023-03-01T14:42:56;7.00;1.00
827;DHT22;395;48.132;11.608;2023-03-01T14:45:25;7.00;1.00
827;DHT22;395;48.132;11.608;2023-03-01T14:47:51;6.90;1.00
827;DHT22;395;48.132;11.608;2023-03-01T14:50:28;6.90;1.00
827;DHT22;395;48.132;11.608;2023-03-01T14:52:58;7.00;1.00
827;DHT22;395;48.132;11.608;2023-03-01T14:57:56;7.10;1.00
827;DHT22;395;48.132;11.608;2023-03-01T15:00:25;7.30;1.00
827;DHT22;395;48.132;11.608;2023-03-01T15:02:53;7.20;1.00
827;DHT22;395;48.132;11.608;2023-03-01T15:05:33;7.30;1.00
827;DHT22;395;48.132;11.608;2023-03-01T15:08:01;7.30;1.00
827;DHT22;395;48.132;11.608;2023-03-01T15:10:33;7.40;1.00
827;DHT22;395;48.132;11.608;2023-03-01T15:13:13;7.40;1.00
827;DHT22;395;48.132;11.608;2023-03-01T15:15:44;7.40;1.00
827;DHT22;395;48.132;11.608;2023-03-01T15:18:20;7.40;1.00
827;DHT22;395;48.132;11.608;2023-03-01T15:20:48;7.40;1.00
827;DHT22;395;48.132;11.608;2023-03-01T15:23:32;7.50;1.00
827;DHT22;395;48.132;11.608;2023-03-01T15:25:58;7.50;1.00
827;DHT22;395;48.132;11.608;2023-03-01T15:28:37;7.50;1.00
827;DHT22;395;48.132;11.608;2023-03-01T15:31:23;7.50;1.00
827;DHT22;395;48.132;11.608;2023-03-01T15:33:49;7.50;1.00
827;DHT22;395;48.132;11.608;2023-03-01T15:38:58;7.50;1.00
827;DHT22;395;48.132;11.608;2023-03-01T15:41:38;7.50;1.00
827;DHT22;395;48.132;11.608;2023-03-01T15:46:46;7.50;1.00
827;DHT22;395;48.132;11.608;2023-03-01T15:49:41;7.50;1.00
827;DHT22;395;48.132;11.608;2023-03-01T15:52:16;7.60;1.00
827;DHT22;395;48.132;11.608;2023-03-01T15:54:45;7.60;1.00
827;DHT22;395;48.132;11.608;2023-03-01T15:57:14;7.60;1.00
827;DHT22;395;48.132;11.608;2023-03-01T15:59:41;7.60;1.00
827;DHT22;395;48.132;11.608;2023-03-01T16:02:11;7.60;1.00
827;DHT22;395;48.132;11.608;2023-03-01T16:04:38;7.70;1.00
827;DHT22;395;48.132;11.608;2023-03-01T16:07:05;7.60;1.00
827;DHT22;395;48.132;11.608;2023-03-01T16:09:31;7.60;1.00
827;DHT22;395;48.132;11.608;2023-03-01T16:11:57;7.60;1.00
827;DHT22;395;48.132;11.608;2023-03-01T16:14:23;7.60;1.00
827;DHT22;395;48.132;11.608;2023-03-01T16:16:49;7.60;1.00
827;DHT22;395;48.132;11.608;2023-03-01T16:19:15;7.60;1.00
827;DHT22;395;48.132;11.608;2023-03-01T16:21:42;7.60;1.00
827;DHT22;395;48.132;11.608;2023-03-01T16:24:09;7.60;1.00
827;DHT22;395;48.132;11.608;2023-03-01T16:26:36;7.50;1.00
827;DHT22;395;48.132;11.608;2023-03-01T16:29:02;7.60;1.00
827;DHT22;395;48.132;11.608;2023-03-01T16:31:29;7.60;1.00
827;DHT22;395;48.132;11.608;2023-03-01T16:33:57;7.50;1.00
827;DHT22;395;48.132;11.608;2023-03-01T16:36:24;7.60;1.00
827;DHT22;395;48.132;11.608;2023-03-01T16:38:52;7.60;1.00
827;DHT22;395;48.132;11.608;2023-03-01T16:41:20;7.60;1.00
827;DHT22;395;48.132;11.608;2023-03-01T16:43:46;7.50;1.00
827;DHT22;395;48.132;11.608;2023-03-01T16:46:19;7.50;1.00
827;DHT22;395;48.132;11.608;2023-03-01T16:48:46;7.50;1.00
827;DHT22;395;48.132;11.608;2023-03-01T16:51:12;7.50;1.00
827;DHT22;395;48.132;11.608;2023-03-01T16:53:37;7.50;1.00
827;DHT22;395;48.132;11.608;2023-03-01T16:56:06;7.50;1.00
827;DHT22;395;48.132;11.608;2023-03-01T16:58:34;7.40;1.00
827;DHT22;395;48.132;11.608;2023-03-01T17:01:25;7.40;1.00
827;DHT22;395;48.132;11.608;2023-03-01T17:03:51;7.40;1.00
827;DHT22;395;48.132;11.608;2023-03-01T17:06:19;7.40;1.00
827;DHT22;395;48.132;11.608;2023-03-01T17:08:46;7.30;1.00
827;DHT22;395;48.132;11.608;2023-03-01T17:11:18;7.30;1.00
827;DHT22;395;48.132;11.608;2023-03-01T17:13:44;7.30;1.00
827;DHT22;395;48.132;11.608;2023-03-01T17:16:13;7.20;1.00
827;DHT22;395;48.132;11.608;2023-03-01T17:18:40;7.20;1.00
827;DHT22;395;48.132;11.608;2023-03-01T17:21:06;7.20;1.00
827;DHT22;395;48.132;11.608;2023-03-01T17:23:32;7.20;1.00
827;DHT22;395;48.132;11.608;2023-03-01T17:25:59;7.10;1.00
827;DHT22;395;48.132;11.608;2023-03-01T17:28:27;7.00;1.00
827;DHT22;395;48.132;11.608;2023-03-01T17:30:53;7.10;1.00
827;DHT22;395;48.132;11.608;2023-03-01T17:33:20;7.00;1.00
827;DHT22;395;48.132;11.608;2023-03-01T17:35:46;6.90;1.00
827;DHT22;395;48.132;11.608;2023-03-01T17:38:13;6.90;1.00
827;DHT22;395;48.132;11.608;2023-03-01T17:40:40;6.80;1.00
827;DHT22;395;48.132;11.608;2023-03-01T17:43:07;6.80;1.00
827;DHT22;395;48.132;11.608;2023-03-01T17:45:36;6.70;1.00
827;DHT22;395;48.132;11.608;2023-03-01T17:48:02;6.70;1.00
827;DHT22;395;48.132;11.608;2023-03-01T17:50:28;6.60;1.00
827;DHT22;395;48.132;11.608;2023-03-01T17:52:53;6.60;1.00
827;DHT22;395;48.132;11.608;2023-03-01T17:55:20;6.50;1.00
827;DHT22;395;48.132;11.608;2023-03-01T17:57:46;6.50;1.00
827;DHT22;395;48.132;11.608;2023-03-01T18:00:14;6.40;1.00
827;DHT22;395;48.132;11.608;2023-03-01T18:02:40;6.40;1.00
827;DHT22;395;48.132;11.608;2023-03-01T18:05:07;6.40;1.00
827;DHT22;395;48.132;11.608;2023-03-01T18:07:33;6.30;1.00
827;DHT22;395;48.132;11.608;2023-03-01T18:09:59;6.40;1.00
827;DHT22;395;48.132;11.608;2023-03-01T18:12:25;6.30;1.00
827;DHT22;395;48.132;11.608;2023-03-01T18:14:51;6.30;1.00
827;DHT22;395;48.132;11.608;2023-03-01T18:17:20;6.20;1.00
827;DHT22;395;48.132;11.608;2023-03-01T18:19:46;6.20;1.00
827;DHT22;395;48.132;11.608;2023-03-01T18:22:12;6.10;1.00
827;DHT22;395;48.132;11.608;2023-03-01T18:24:38;6.10;1.00
827;DHT22;395;48.132;11.608;2023-03-01T18:27:04;6.10;1.00
827;DHT22;395;48.132;11.608;2023-03-01T18:29:30;6.00;1.00
827;DHT22;395;48.132;11.608;2023-03-01T18:31:56;6.00;1.00
827;DHT22;395;48.132;11.608;2023-03-01T18:34:22;6.00;1.00
827;DHT22;395;48.132;11.608;2023-03-01T18:36:48;6.00;1.00
827;DHT22;395;48.132;11.608;2023-03-01T18:39:16;6.00;1.00
827;DHT22;395;48.132;11.608;2023-03-01T18:41:42;5.90;1.00
827;DHT22;395;48.132;11.608;2023-03-01T18:44:09;5.80;1.00
827;DHT22;395;48.132;11.608;2023-03-01T18:46:35;5.80;1.00
827;DHT22;395;48.132;11.608;2023-03-01T18:49:03;5.80;1.00
827;DHT22;395;48.132;11.608;2023-03-01T18:51:29;5.80;1.00
827;DHT22;395;48.132;11.608;2023-03-01T18:53:55;5.80;1.00
827;DHT22;395;48.132;11.608;2023-03-01T18:56:23;5.80;1.00
827;DHT22;395;48.132;11.608;2023-03-01T18:58:49;5.70;1.00
827;DHT22;395;48.132;11.608;2023-03-01T19:01:20;5.70;1.00
827;DHT22;395;48.132;11.608;2023-03-01T19:03:46;5.70;1.00
827;DHT22;395;48.132;11.608;2023-03-01T19:06:12;5.70;1.00
827;DHT22;395;48.132;11.608;2023-03-01T19:08:38;5.70;1.00
827;DHT22;395;48.132;11.608;2023-03-01T19:11:06;5.60;1.00
827;DHT22;395;48.132;11.608;2023-03-01T19:13:37;5.70;1.00